Time;durP1;ratioP1;P1;durP2;ratioP2;P2;SDS_P1;SDS_P2;PMS_P1;PMS_P2;Temp;Humidity;BMP_temperature;BMP_pressure;BME280_temperature;BME280_humidity;BME280_pressure;Samples;Min_cycle;Max_cycle;Signal;HPM_P1;HPM_P2
2022/05/02 00:02:18;;;;;;;13.50;9.43;;;;;;;6.74;100.00;101228.25;4948257;28;20760;-70
2022/05/02 00:04:44;;;;;;;9.47;7.67;;;;;;;6.76;100.00;101221.31;4941385;29;20229;-70
2022/05/02 00:07:11;;;;;;;9.63;7.37;;;;;;;6.82;100.00;101225.63;4945421;29;20206;-70
2022/05/02 00:09:38;;;;;;;10.57;6.07;;;;;;;6.78;100.00;101222.19;4944411;28;20685;-70
2022/05/02 00:12:05;;;;;;;8.87;6.30;;;;;;;6.86;100.00;101218.72;4942474;29;20202;-70
2022/05/02 00:14:31;;;;;;;6.20;5.53;;;;;;;6.80;100.00;101219.59;4946699;28;20202;-69
2022/05/02 00:16:58;;;;;;;7.03;5.63;;;;;;;6.71;100.00;101220.47;4945017;29;20582;-70
2022/05/02 00:19:25;;;;;;;8.33;5.77;;;;;;;6.72;100.00;101218.72;4940166;29;20689;-71
2022/05/02 00:21:52;;;;;;;6.93;5.80;;;;;;;6.66;100.00;101218.75;4943520;29;20753;-70
2022/05/02 00:24:18;;;;;;;6.97;4.73;;;;;;;6.70;100.00;101213.56;4940801;28;20214;-71
2022/05/02 00:26:45;;;;;;;6.37;4.33;;;;;;;6.71;100.00;101214.44;4940838;28;20669;-70
2022/05/02 00:29:11;;;;;;;4.90;4.40;;;;;;;6.78;100.00;101216.16;4939493;29;20246;-70
2022/05/02 00:31:38;;;;;;;6.40;4.27;;;;;;;6.79;100.00;101207.53;4939834;29;20203;-70
2022/05/02 00:34:04;;;;;;;4.70;4.00;;;;;;;6.75;100.00;101213.53;4942130;29;20199;-70
2022/05/02 00:36:32;;;;;;;4.70;4.20;;;;;;;6.76;100.00;101205.78;4958293;28;20700;-70
2022/05/02 00:38:59;;;;;;;4.80;4.30;;;;;;;6.70;100.00;101210.97;4940561;29;20226;-70
2022/05/02 00:41:26;;;;;;;6.57;3.67;;;;;;;6.77;100.00;101207.50;4941353;29;20209;-70
2022/05/02 00:43:54;;;;;;;5.97;4.00;;;;;;;6.68;100.00;101211.84;4941851;28;20226;-70
2022/05/02 00:46:24;;;;;;;6.20;4.47;;;;;;;6.68;100.00;101207.50;4941886;29;20574;-70
2022/05/02 00:48:52;;;;;;;7.20;4.40;;;;;;;6.65;100.00;101207.53;4941253;29;20338;-70
2022/05/02 00:51:20;;;;;;;7.07;4.20;;;;;;;6.61;100.00;101219.63;4939361;29;20694;-70
2022/05/02 00:53:50;;;;;;;8.40;4.20;;;;;;;6.62;100.00;101221.34;4940111;29;20192;-70
2022/05/02 00:56:17;;;;;;;9.93;4.20;;;;;;;6.65;100.00;101220.47;4942996;29;20217;-70
2022/05/02 00:58:45;;;;;;;7.47;4.47;;;;;;;6.63;100.00;101220.47;4941264;28;20227;-70
2022/05/02 01:01:11;;;;;;;7.73;4.50;;;;;;;6.64;100.00;101222.19;4942720;29;20291;-70
2022/05/02 01:03:37;;;;;;;5.30;3.90;;;;;;;6.69;100.00;101217.00;4943698;28;20934;-70
2022/05/02 01:08:49;;;;;;;6.23;4.37;;;;;;;6.57;100.00;101219.59;4942248;29;20683;-70
2022/05/02 01:11:16;;;;;;;6.80;4.40;;;;;;;6.55;100.00;101214.44;4944562;29;20714;-71
2022/05/02 01:13:44;;;;;;;5.47;4.57;;;;;;;6.53;100.00;101208.38;4941911;29;20585;-71
2022/05/02 01:16:13;;;;;;;5.23;4.50;;;;;;;6.59;100.00;101217.88;4943270;29;20203;-70
2022/05/02 01:18:39;;;;;;;8.87;4.63;;;;;;;6.62;100.00;101212.69;4944484;29;20226;-70
2022/05/02 01:21:12;;;;;;;6.37;4.40;;;;;;;6.50;100.00;101210.97;4944754;28;20227;-70
2022/05/02 01:23:38;;;;;;;5.17;4.30;;;;;;;6.43;100.00;101204.06;4941653;29;20277;-70
2022/05/02 01:26:05;;;;;;;5.63;4.40;;;;;;;6.42;100.00;101203.22;4940735;29;20416;-71
2022/05/02 01:28:31;;;;;;;6.60;4.33;;;;;;;6.38;100.00;101205.78;4942492;29;20230;-70
2022/05/02 01:30:58;;;;;;;8.17;4.30;;;;;;;6.32;100.00;101204.06;4942327;29;20194;-70
2022/05/02 01:33:24;;;;;;;7.23;4.60;;;;;;;6.42;100.00;101192.84;4942411;29;20262;-70
2022/05/02 01:35:50;;;;;;;5.80;4.03;;;;;;;6.52;100.00;101191.09;4941758;29;20211;-70
2022/05/02 01:38:18;;;;;;;6.30;4.20;;;;;;;6.39;100.00;101194.56;4940227;29;20226;-70
2022/05/02 01:40:45;;;;;;;7.60;4.37;;;;;;;6.22;100.00;101198.00;4943479;29;20203;-70
2022/05/02 01:43:11;;;;;;;7.97;4.17;;;;;;;6.11;100.00;101199.72;4942292;28;20207;-70
2022/05/02 01:45:37;;;;;;;5.10;4.20;;;;;;;6.05;100.00;101203.19;4943221;29;20924;-71
2022/05/02 01:48:04;;;;;;;5.53;4.10;;;;;;;6.09;100.00;101205.78;4941324;28;20711;-70
2022/05/02 01:50:31;;;;;;;6.33;4.27;;;;;;;6.00;100.00;101194.53;4943427;29;20211;-72
2022/05/02 01:52:57;;;;;;;5.67;4.00;;;;;;;6.09;100.00;101195.41;4944658;28;20213;-70
2022/05/02 01:55:25;;;;;;;5.23;4.10;;;;;;;6.21;100.00;101188.53;4941875;28;20545;-71
2022/05/02 01:57:51;;;;;;;5.17;4.27;;;;;;;6.02;100.00;101192.81;4940483;29;20222;-70
2022/05/02 02:00:18;;;;;;;5.27;4.17;;;;;;;5.95;100.00;101193.63;4940826;28;20206;-70
2022/05/02 02:02:44;;;;;;;5.30;4.10;;;;;;;5.95;100.00;101190.19;4943099;29;20203;-70
2022/05/02 02:07:56;;;;;;;6.63;4.27;;;;;;;5.75;100.00;101200.47;4942265;29;20594;-70
2022/05/02 02:10:22;;;;;;;6.57;4.97;;;;;;;5.66;100.00;101194.44;4944180;28;20206;-71
2022/05/02 02:12:50;;;;;;;7.80;5.03;;;;;;;5.61;100.00;101203.00;4950282;29;20206;-70
2022/05/02 02:15:16;;;;;;;6.03;4.50;;;;;;;5.58;100.00;101196.09;4948327;29;20215;-70
2022/05/02 02:17:43;;;;;;;8.53;4.57;;;;;;;5.54;100.00;101196.97;4948729;29;20227;-70
2022/05/02 02:20:11;;;;;;;5.37;4.07;;;;;;;5.61;100.00;101193.53;4948545;29;20697;-70
2022/05/02 02:22:38;;;;;;;6.83;4.33;;;;;;;5.50;100.00;101190.03;4945674;28;20577;-70
2022/05/02 02:25:05;;;;;;;6.27;3.83;;;;;;;5.53;100.00;101190.06;4946626;29;20239;-70
2022/05/02 02:27:32;;;;;;;7.20;4.43;;;;;;;5.41;100.00;101192.59;4949151;29;20223;-70
2022/05/02 02:30:00;;;;;;;4.53;4.07;;;;;;;5.28;100.00;101194.28;4947511;29;20202;-70
2022/05/02 02:32:29;;;;;;;6.87;4.57;;;;;;;5.40;100.00;101185.69;4950552;28;20586;-69
2022/05/02 02:34:56;;;;;;;7.77;4.70;;;;;;;5.25;100.00;101192.50;4948724;29;20697;-69
2022/05/02 02:37:22;;;;;;;6.20;4.63;;;;;;;5.22;100.00;101182.16;4949181;29;20214;-70
2022/05/02 02:39:48;;;;;;;6.13;4.60;;;;;;;5.17;100.00;101183.00;4950908;29;20210;-69
2022/05/02 02:42:15;;;;;;;6.57;4.23;;;;;;;5.29;100.00;101176.19;4948140;29;20196;-70
2022/05/02 02:44:41;;;;;;;5.73;4.70;;;;;;;5.16;100.00;101183.88;4949134;29;20225;-69
2022/05/02 02:47:09;;;;;;;5.23;4.07;;;;;;;5.19;100.00;101173.53;4949022;29;20202;-70
2022/05/02 02:49:35;;;;;;;6.63;4.30;;;;;;;5.12;100.00;101175.22;4945353;29;20791;-70
2022/05/02 02:52:01;;;;;;;5.53;4.47;;;;;;;5.13;100.00;101179.53;4947838;28;20462;-72
2022/05/02 02:54:28;;;;;;;6.13;4.80;;;;;;;5.10;100.00;101171.75;4946159;29;20226;-70
2022/05/02 02:56:54;;;;;;;4.87;4.27;;;;;;;5.04;100.00;101169.16;4949981;29;20705;-69
2022/05/02 02:59:20;;;;;;;5.33;4.60;;;;;;;5.01;100.00;101179.47;4948814;29;20227;-70
2022/05/02 03:01:47;;;;;;;7.40;4.73;;;;;;;4.98;100.00;101163.94;4946295;29;20210;-70
2022/05/02 03:07:01;;;;;;;7.10;4.20;;;;;;;4.89;100.00;101169.91;4945560;29;20222;-72
2022/05/02 03:09:29;;;;;;;6.43;5.37;;;;;;;4.97;100.00;101163.06;4946602;28;20210;-70
2022/05/02 03:11:56;;;;;;;9.57;4.90;;;;;;;4.82;100.00;101168.16;4948164;28;20812;-70
2022/05/02 03:14:22;;;;;;;6.70;4.97;;;;;;;4.78;100.00;101171.56;4947041;29;20661;-71
2022/05/02 03:16:49;;;;;;;7.80;4.63;;;;;;;4.74;100.00;101173.28;4946145;29;20761;-70
2022/05/02 03:19:16;;;;;;;6.27;4.93;;;;;;;4.64;100.00;101168.91;4948077;29;20721;-71
2022/05/02 03:21:43;;;;;;;6.93;5.00;;;;;;;4.61;100.00;101174.91;4946837;28;20198;-70
2022/05/02 03:24:09;;;;;;;8.80;5.30;;;;;;;4.80;100.00;101183.66;4944220;29;20227;-70
2022/05/02 03:26:35;;;;;;;6.87;4.67;;;;;;;4.65;100.00;101170.63;4947189;29;20215;-70
2022/05/02 03:29:02;;;;;;;7.80;4.67;;;;;;;4.54;100.00;101180.91;4947477;29;20234;-71
2022/05/02 03:31:29;;;;;;;6.60;5.17;;;;;;;4.55;100.00;101180.03;4946208;29;20207;-70
2022/05/02 03:33:55;;;;;;;6.77;4.70;;;;;;;4.66;100.00;101175.81;4944855;29;20674;-72
2022/05/02 03:36:23;;;;;;;8.33;4.60;;;;;;;4.62;100.00;101174.03;4944101;28;20654;-70
2022/05/02 03:38:49;;;;;;;6.60;4.47;;;;;;;4.62;100.00;101170.59;4942503;29;20223;-70
2022/05/02 03:41:16;;;;;;;6.53;5.17;;;;;;;4.51;100.00;101170.53;4942312;29;20210;-70
2022/05/02 03:43:43;;;;;;;7.73;5.43;;;;;;;4.51;100.00;101179.13;4941411;28;20218;-70
2022/05/02 03:46:09;;;;;;;6.17;4.67;;;;;;;4.44;100.00;101174.78;4943298;28;20309;-70
2022/05/02 03:48:36;;;;;;;6.83;5.33;;;;;;;4.53;100.00;101177.44;4942155;29;20218;-70
2022/05/02 03:51:02;;;;;;;6.23;4.60;;;;;;;4.57;100.00;101173.16;4942221;28;20195;-70
2022/05/02 03:53:30;;;;;;;5.30;4.80;;;;;;;4.58;100.00;101182.63;4943249;28;20222;-70
2022/05/02 03:55:56;;;;;;;6.07;5.13;;;;;;;4.48;100.00;101176.53;4944319;29;20685;-70
2022/05/02 03:58:23;;;;;;;6.23;5.27;;;;;;;4.46;100.00;101180.81;4944350;29;20578;-71
2022/05/02 04:00:49;;;;;;;6.67;5.03;;;;;;;4.47;100.00;101173.97;4943677;28;20231;-70
2022/05/02 04:03:15;;;;;;;5.90;4.60;;;;;;;4.64;100.00;101174.06;4941477;29;20234;-72
2022/05/02 04:05:42;;;;;;;7.97;5.20;;;;;;;4.49;100.00;101173.09;4942787;28;20671;-70
2022/05/02 04:08:09;;;;;;;7.13;5.27;;;;;;;4.51;100.00;101173.97;4938176;28;20718;-70
2022/05/02 04:10:36;;;;;;;6.97;5.50;;;;;;;4.53;100.00;101177.44;4943800;29;20237;-70
2022/05/02 04:13:03;;;;;;;8.83;5.23;;;;;;;4.68;100.00;101173.25;4946278;28;20204;-70
2022/05/02 04:15:29;;;;;;;6.07;5.17;;;;;;;4.81;100.00;101175.03;4948565;29;20198;-70
2022/05/02 04:17:58;;;;;;;10.93;5.50;;;;;;;4.84;100.00;101172.50;4938633;28;20278;-70
2022/05/02 04:20:24;;;;;;;6.73;5.00;;;;;;;4.96;100.00;101171.69;4938785;28;20614;-70
2022/05/02 04:22:52;;;;;;;7.10;5.50;;;;;;;4.96;100.00;101178.56;4939969;29;20207;-70
2022/05/02 04:25:18;;;;;;;6.23;5.40;;;;;;;5.00;100.00;101172.59;4945251;29;20219;-70
2022/05/02 04:27:46;;;;;;;6.60;5.53;;;;;;;5.07;100.00;101174.34;4941658;29;20227;-70
2022/05/02 04:30:13;;;;;;;7.20;5.87;;;;;;;5.14;100.00;101173.50;4943970;28;20211;-70
2022/05/02 04:32:39;;;;;;;6.93;5.40;;;;;;;5.31;100.00;101174.47;4949748;28;20214;-71
2022/05/02 04:35:10;;;;;;;6.70;5.30;;;;;;;5.43;100.00;101176.22;4939270;28;20298;-71
2022/05/02 04:37:36;;;;;;;8.60;5.80;;;;;;;5.42;100.00;101176.22;4944746;28;20598;-70
2022/05/02 04:40:03;;;;;;;13.07;5.90;;;;;;;5.44;100.00;101179.69;4936265;29;20206;-71
2022/05/02 04:42:30;;;;;;;7.33;5.63;;;;;;;5.49;100.00;101177.97;4943077;29;20199;-71
2022/05/02 04:44:58;;;;;;;6.67;5.83;;;;;;;5.74;100.00;101178.06;4941988;29;20247;-70
2022/05/02 04:47:24;;;;;;;7.73;5.57;;;;;;;5.82;100.00;101181.50;4941377;29;20227;-70
2022/05/02 04:49:51;;;;;;;13.80;6.00;;;;;;;5.94;100.00;101180.69;4941143;29;20211;-70
2022/05/02 04:52:17;;;;;;;24.40;13.47;;;;;;;6.02;100.00;101185.03;4939958;29;20676;-70
2022/05/02 04:54:44;;;;;;;7.93;5.33;;;;;;;6.11;100.00;101181.59;4942940;29;20199;-70
2022/05/02 04:57:10;;;;;;;7.23;5.70;;;;;;;6.18;100.00;101185.06;4939917;29;20667;-72
2022/05/02 04:59:36;;;;;;;7.07;5.27;;;;;;;6.29;100.00;101183.34;4938128;29;20236;-71
2022/05/02 05:02:06;;;;;;;8.10;5.10;;;;;;;6.47;100.00;101186.78;4937721;28;20578;-72
2022/05/02 05:04:32;;;;;;;7.17;5.50;;;;;;;6.60;100.00;101175.56;4943489;28;20221;-72
2022/05/02 05:06:59;;;;;;;7.33;5.63;;;;;;;6.69;100.00;101177.28;4942627;29;20204;-71
2022/05/02 05:09:25;;;;;;;7.80;5.93;;;;;;;6.83;100.00;101172.94;4943822;28;20207;-71
2022/05/02 05:12:00;;;;;;;12.40;6.10;;;;;;;6.90;100.00;101173.81;4938857;28;20611;-71
2022/05/02 05:17:59;;;;;;;8.50;5.97;;;;;;;7.08;100.00;101175.47;4885123;29;20243;-71
2022/05/02 05:20:39;;;;;;;8.90;5.60;;;;;;;7.17;100.00;101171.09;4879566;29;20202;-72
2022/05/02 05:23:19;;;;;;;9.90;5.53;;;;;;;7.29;100.00;101169.34;4916388;28;20560;-71
2022/05/02 05:26:04;;;;;;;6.43;5.50;;;;;;;7.42;100.00;101175.34;4944427;29;20234;-71
2022/05/02 05:29:00;;;;;;;12.80;7.33;;;;;;;7.63;97.78;101189.97;4937488;28;20227;-71
2022/05/02 05:31:31;;;;;;;9.43;6.20;;;;;;;7.82;95.96;101198.50;4938371;28;20217;-70
2022/05/02 05:34:06;;;;;;;6.87;5.33;;;;;;;7.97;95.43;101193.25;4937917;28;20262;-70
2022/05/02 05:36:40;;;;;;;10.73;5.67;;;;;;;8.05;94.49;101200.97;4934851;28;20737;-71
2022/05/02 05:39:11;;;;;;;5.73;4.90;;;;;;;8.15;95.19;101195.69;4941298;28;20646;-71
2022/05/02 05:41:54;;;;;;;9.67;5.27;;;;;;;8.30;92.43;101199.06;4940983;28;20210;-71
2022/05/02 05:44:33;;;;;;;7.50;5.20;;;;;;;8.41;92.27;101199.84;4942270;28;20207;-71
2022/05/02 05:47:19;;;;;;;7.30;4.67;;;;;;;8.55;90.54;101194.56;4935966;28;20191;-70
2022/05/02 05:49:59;;;;;;;6.40;5.13;;;;;;;8.71;91.97;101190.09;4940735;28;20214;-71
2022/05/02 05:52:41;;;;;;;8.30;5.40;;;;;;;8.83;89.39;101194.28;4938398;28;20207;-71
2022/05/02 05:55:12;;;;;;;7.37;5.20;;;;;;;8.94;88.58;101199.41;4940277;29;20535;-71
2022/05/02 05:57:57;;;;;;;6.33;4.93;;;;;;;9.07;88.76;101199.25;4939628;28;20222;-70
2022/05/02 06:00:30;;;;;;;6.07;4.60;;;;;;;9.27;84.20;101201.63;4937423;29;20230;-70
2022/05/02 06:03:08;;;;;;;8.73;4.70;;;;;;;9.40;83.15;101204.09;4941811;28;20207;-70
2022/05/02 06:05:40;;;;;;;7.60;5.10;;;;;;;9.55;83.21;101206.53;4941574;29;20278;-71
2022/05/02 06:08:10;;;;;;;8.40;4.77;;;;;;;9.69;81.62;101213.28;4938484;28;20226;-71
2022/05/02 06:10:37;;;;;;;7.97;4.90;;;;;;;9.85;80.97;101214.81;4942394;28;20214;-70
2022/05/02 06:13:05;;;;;;;5.93;5.03;;;;;;;9.97;79.73;101224.19;4942872;28;20227;-71
2022/05/02 06:18:30;;;;;;;8.40;5.43;;;;;;;10.13;78.33;101227.41;4933174;29;20221;-70
2022/05/02 06:21:01;;;;;;;6.03;4.83;;;;;;;10.19;78.14;101223.00;4939274;28;20592;-71
2022/05/02 06:23:32;;;;;;;19.00;11.27;;;;;;;10.30;77.20;101216.75;4942010;28;20208;-70
2022/05/02 06:25:58;;;;;;;7.77;5.40;;;;;;;10.46;77.75;101209.59;4938939;29;20229;-71
2022/05/02 06:28:29;;;;;;;8.70;4.90;;;;;;;10.52;77.56;101212.09;4935265;29;20237;-71
2022/05/02 06:30:59;;;;;;;8.37;4.60;;;;;;;10.64;76.12;101214.50;4938435;29;20217;-70
2022/05/02 06:33:26;;;;;;;14.77;9.07;;;;;;;10.79;76.98;101205.53;4940549;29;20220;-71
2022/05/02 06:35:59;;;;;;;6.43;5.60;;;;;;;10.95;76.29;101213.94;4941200;28;20199;-71
2022/05/02 06:38:41;;;;;;;6.33;4.57;;;;;;;11.08;74.05;101214.56;4944826;29;20233;-71
2022/05/02 06:41:15;;;;;;;7.67;4.93;;;;;;;11.23;71.72;101221.28;4944515;29;20783;-71
2022/05/02 06:43:52;;;;;;;7.50;5.00;;;;;;;11.34;70.30;101216.69;4939800;29;20720;-71
2022/05/02 06:46:21;;;;;;;8.87;5.10;;;;;;;11.52;69.72;101218.94;4937457;29;20224;-70
2022/05/02 06:48:50;;;;;;;7.07;4.50;;;;;;;11.67;67.10;101220.34;4935828;29;20729;-71
2022/05/02 06:51:22;;;;;;;7.27;3.93;;;;;;;11.86;64.58;101223.44;4942407;29;20218;-71
2022/05/02 06:54:08;;;;;;;11.90;5.80;;;;;;;11.99;62.31;101228.44;4943570;29;20702;-70
2022/05/02 06:56:42;;;;;;;8.73;5.90;;;;;;;12.17;63.10;101225.41;4936884;29;20606;-71
2022/05/02 06:59:23;;;;;;;6.53;3.67;;;;;;;12.31;60.89;101219.81;4942054;28;20303;-70
2022/05/02 07:01:53;;;;;;;6.13;3.60;;;;;;;12.37;61.23;101221.47;4945073;29;20222;-70
2022/05/02 07:04:34;;;;;;;4.33;3.40;;;;;;;12.44;60.59;101220.41;4940535;28;20240;-71
2022/05/02 07:07:11;;;;;;;5.03;3.40;;;;;;;12.58;58.71;101227.94;4940011;29;20215;-70
2022/05/02 07:09:44;;;;;;;5.50;3.47;;;;;;;12.71;57.98;101226.69;4937441;29;20224;-70
2022/05/02 07:12:17;;;;;;;8.70;3.40;;;;;;;12.73;59.16;101224.03;4941921;28;20578;-70
2022/05/02 07:14:56;;;;;;;6.83;3.43;;;;;;;12.84;57.79;101232.47;4939064;29;20204;-71
2022/05/02 07:17:45;;;;;;;4.67;2.93;;;;;;;12.95;56.78;101225.22;4941564;29;20212;-71
2022/05/02 07:20:18;;;;;;;7.43;3.13;;;;;;;13.06;57.28;101227.53;4941566;28;20505;-71
2022/05/02 07:22:48;;;;;;;7.60;3.13;;;;;;;13.22;55.37;101228.81;4944466;29;20207;-71
2022/05/02 07:25:21;;;;;;;5.27;3.17;;;;;;;13.32;56.46;101221.63;4945770;28;20224;-71
2022/05/02 07:27:58;;;;;;;8.10;3.17;;;;;;;13.35;54.73;101223.28;4938874;29;20240;-70
2022/05/02 07:30:26;;;;;;;7.87;3.20;;;;;;;13.52;54.94;101223.66;4938241;29;20213;-71
2022/05/02 07:32:54;;;;;;;7.27;3.13;;;;;;;13.59;53.58;101222.56;4936224;28;20569;-71
2022/05/02 07:35:21;;;;;;;7.23;3.30;;;;;;;13.64;53.68;101223.31;4936341;29;20283;-71
2022/05/02 07:37:48;;;;;;;5.37;2.90;;;;;;;13.73;53.03;101216.94;4941187;28;20227;-70
2022/05/02 07:40:20;;;;;;;6.73;3.17;;;;;;;13.87;52.90;101220.91;4944785;28;20218;-71
2022/05/02 07:42:47;;;;;;;4.63;2.93;;;;;;;14.02;53.08;101213.44;4933498;29;20234;-71
2022/05/02 07:45:17;;;;;;;4.43;2.90;;;;;;;14.11;50.92;101229.78;4943225;29;20202;-70
2022/05/02 07:47:47;;;;;;;7.17;3.37;;;;;;;14.04;50.23;101226.50;4938835;28;20637;-71
2022/05/02 07:50:14;;;;;;;7.03;3.50;;;;;;;14.13;50.66;101225.34;4940222;29;20565;-71
2022/05/02 07:52:43;;;;;;;6.37;3.27;;;;;;;14.20;49.75;101225.09;4940016;28;20227;-71
2022/05/02 07:55:10;;;;;;;8.53;2.90;;;;;;;14.18;49.65;101229.53;4946181;29;20215;-71
2022/05/02 07:57:39;;;;;;;8.73;3.20;;;;;;;14.30;49.51;101214.31;4942345;28;20634;-71
2022/05/02 08:00:08;;;;;;;5.97;3.23;;;;;;;14.39;49.75;101220.13;4943343;29;20265;-71
2022/05/02 08:02:44;;;;;;;7.87;3.50;;;;;;;14.40;49.51;101223.59;4943506;29;20203;-71
2022/05/02 08:05:11;;;;;;;4.33;3.00;;;;;;;14.41;48.87;101230.59;4938819;29;20202;-71
2022/05/02 08:07:39;;;;;;;5.30;2.83;;;;;;;14.46;48.47;101226.03;4944296;28;20980;-71
2022/05/02 08:10:36;;;;;;;6.77;2.90;;;;;;;14.65;49.61;101231.56;4946380;28;20209;-71
2022/05/02 08:13:16;;;;;;;8.67;3.23;;;;;;;14.75;48.99;101224.22;4937216;29;20226;-71
2022/05/02 08:15:50;;;;;;;4.83;2.90;;;;;;;14.82;50.29;101217.84;4944737;29;20203;-71
2022/05/02 08:18:36;;;;;;;3.90;2.90;;;;;;;14.86;49.15;101218.59;4935398;29;20227;-71
2022/05/02 08:21:06;;;;;;;6.67;2.80;;;;;;;15.04;47.96;101219.72;4944174;29;20206;-71
2022/05/02 08:29:50;;;;;;;4.57;2.80;;;;;;;15.26;47.54;101217.22;4942001;28;20228;-71
2022/05/02 08:32:23;;;;;;;3.93;2.70;;;;;;;15.29;46.82;101217.94;4947400;28;20204;-71
2022/05/02 08:35:02;;;;;;;6.53;3.00;;;;;;;15.46;48.40;101214.72;4941440;29;20213;-71
2022/05/02 08:37:46;;;;;;;3.53;2.90;;;;;;;15.55;50.42;101207.38;4940296;28;20234;-71
2022/05/02 08:40:22;;;;;;;8.13;3.10;;;;;;;15.62;47.67;101208.88;4946864;29;20684;-71
2022/05/02 08:43:11;;;;;;;5.63;2.67;;;;;;;15.69;51.82;101202.47;4946136;28;20206;-71
2022/05/02 08:46:16;;;;;;;6.00;3.33;;;;;;;15.63;46.23;101210.59;4944586;29;20231;-71
2022/05/02 08:52:33;;;;;;;7.00;3.40;;;;;;;15.74;45.93;101205.75;4939218;29;20769;-71
2022/05/02 08:55:15;;;;;;;6.97;3.30;;;;;;;15.71;45.58;101198.88;4943880;29;20222;-71
2022/05/02 08:58:03;;;;;;;4.03;2.77;;;;;;;15.91;47.08;101192.00;4946446;29;20228;-71
2022/05/02 09:00:49;;;;;;;4.43;3.17;;;;;;;15.87;45.11;101195.69;4938414;29;20217;-71
2022/05/02 09:03:37;;;;;;;4.67;2.60;;;;;;;15.90;45.27;101190.31;4946049;28;20208;-71
2022/05/02 09:06:45;;;;;;;4.80;3.37;;;;;;;15.89;46.31;101184.19;4942464;28;20227;-71
2022/05/02 09:09:48;;;;;;;5.33;2.97;;;;;;;16.11;45.19;101185.94;4943501;29;20247;-71
2022/05/02 09:12:43;;;;;;;7.37;3.57;;;;;;;15.99;45.28;101181.16;4940976;29;20256;-71
2022/05/02 09:15:57;;;;;;;5.37;2.90;;;;;;;16.07;44.78;101181.72;4938377;29;20217;-71
2022/05/02 09:19:13;;;;;;;7.03;2.67;;;;;;;16.18;45.42;101179.53;4900874;29;20284;-71
2022/05/02 09:22:05;;;;;;;5.30;3.20;;;;;;;16.46;45.37;101186.28;4941497;29;20644;-71
2022/05/02 09:24:57;;;;;;;3.43;3.07;;;;;;;16.54;44.73;101181.56;4944178;28;20203;-71
2022/05/02 09:27:54;;;;;;;4.40;3.33;;;;;;;16.52;44.57;101172.03;4935383;29;20235;-71
2022/05/02 09:31:03;;;;;;;7.23;3.37;;;;;;;16.60;46.41;101162.88;4941794;28;20233;-71
2022/05/02 09:33:37;;;;;;;3.57;2.43;;;;;;;16.64;45.60;101167.09;4893476;29;20252;-71
2022/05/02 09:36:21;;;;;;;4.80;3.13;;;;;;;16.62;44.87;101166.28;4883698;29;20935;-71
2022/05/02 09:38:51;;;;;;;4.17;3.20;;;;;;;16.76;46.04;101157.81;4919564;28;20242;-71
2022/05/02 09:41:52;;;;;;;6.30;2.93;;;;;;;16.86;45.88;101162.69;4936568;29;20281;-71
2022/05/02 09:50:28;;;;;;;6.43;3.23;;;;;;;17.07;45.28;101151.19;4945918;29;20685;-71
2022/05/02 09:53:18;;;;;;;4.20;3.10;;;;;;;17.04;44.05;101148.69;4939827;28;20678;-71
2022/05/02 09:58:43;;;;;;;3.77;2.97;;;;;;;17.18;43.36;101148.06;4945732;29;20563;-71
2022/05/02 10:01:17;;;;;;;3.53;3.10;;;;;;;17.23;43.14;101139.03;4937547;29;20211;-71
2022/05/02 10:04:11;;;;;;;4.40;3.10;;;;;;;17.16;43.12;101142.88;4940163;29;20220;-72
2022/05/02 10:06:43;;;;;;;5.13;2.63;;;;;;;17.33;42.93;101139.47;4941210;28;20223;-72
2022/05/02 10:09:21;;;;;;;3.80;2.87;;;;;;;17.22;42.46;101139.97;4934584;29;20223;-71
2022/05/02 10:11:59;;;;;;;5.37;2.97;;;;;;;17.43;43.80;101129.38;4938106;28;20218;-71
2022/05/02 10:15:11;;;;;;;6.07;3.00;;;;;;;17.35;43.37;101126.22;4944545;29;20209;-71
2022/05/02 10:18:07;;;;;;;5.00;3.07;;;;;;;17.44;44.32;101124.94;4935368;29;20234;-71
2022/05/02 10:20:44;;;;;;;6.17;2.97;;;;;;;17.57;43.46;101128.69;4936993;28;20602;-71
2022/05/02 10:23:30;;;;;;;5.27;3.20;;;;;;;17.67;44.07;101121.22;4939045;28;20372;-71
2022/05/02 10:26:02;;;;;;;5.27;3.27;;;;;;;17.53;42.25;101119.22;4934635;29;20210;-71
2022/05/02 10:28:47;;;;;;;5.10;3.20;;;;;;;17.48;42.86;101114.16;4946081;29;20309;-71
2022/05/02 10:31:20;;;;;;;4.30;3.17;;;;;;;17.53;43.23;101113.97;4938578;28;20215;-71
2022/05/02 10:33:51;;;;;;;6.77;3.00;;;;;;;17.64;43.12;101114.28;4951713;29;20202;-71
2022/05/02 10:36:20;;;;;;;5.43;3.20;;;;;;;17.59;42.69;101106.63;4942808;29;20199;-71
2022/05/02 10:38:53;;;;;;;5.73;3.17;;;;;;;17.57;41.96;101108.47;4940626;29;20586;-71
2022/05/02 10:41:37;;;;;;;5.27;3.70;;;;;;;17.56;42.11;101101.50;4935723;29;20199;-71
2022/05/02 10:44:05;;;;;;;7.37;3.60;;;;;;;17.45;42.54;101101.16;4940285;28;20258;-71
2022/05/02 10:46:33;;;;;;;4.83;3.37;;;;;;;17.49;42.43;101094.81;4934800;29;20249;-71
2022/05/02 10:49:03;;;;;;;4.10;3.20;;;;;;;17.56;41.75;101096.22;4942812;29;20230;-71
2022/05/02 10:51:42;;;;;;;8.27;3.90;;;;;;;17.63;42.48;101090.66;4950424;29;20559;-71
2022/05/02 10:54:10;;;;;;;5.33;3.40;;;;;;;17.73;42.31;101084.00;4936523;29;20811;-71
2022/05/02 10:56:43;;;;;;;4.73;3.27;;;;;;;17.81;42.21;101079.19;4942187;29;20286;-71
2022/05/02 10:59:12;;;;;;;7.10;3.30;;;;;;;17.90;43.63;101077.94;4947122;29;20702;-72
2022/05/02 11:02:06;;;;;;;8.27;4.00;;;;;;;17.86;42.79;101073.75;4940783;29;20206;-71
2022/05/02 11:04:50;;;;;;;5.57;3.30;;;;;;;18.08;41.55;101074.38;4943762;29;20211;-71
2022/05/02 11:07:30;;;;;;;4.93;3.10;;;;;;;18.16;40.24;101077.47;4946228;29;20694;-71
2022/05/02 11:10:08;;;;;;;4.63;3.03;;;;;;;18.11;41.28;101074.22;4938977;29;20246;-71
2022/05/02 11:12:54;;;;;;;4.97;3.30;;;;;;;18.19;40.12;101075.59;4941426;28;20211;-71
2022/05/02 11:15:43;;;;;;;4.93;3.27;;;;;;;18.27;42.18;101070.78;4935952;29;20199;-71
2022/05/02 11:21:56;;;;;;;5.47;3.10;;;;;;;18.54;41.87;101060.59;4932957;29;20202;-71
2022/05/02 11:24:53;;;;;;;4.90;3.23;;;;;;;18.46;42.29;101053.06;4947836;29;20199;-71
2022/05/02 11:31:03;;;;;;;5.27;3.40;;;;;;;18.66;41.17;101049.38;4937392;29;20217;-71
2022/05/02 11:34:04;;;;;;;6.63;4.13;;;;;;;18.72;39.31;101059.63;4942198;28;20290;-71
2022/05/02 11:36:59;;;;;;;6.37;3.60;;;;;;;18.82;39.52;101045.94;4935454;28;20203;-72
2022/05/02 11:40:06;;;;;;;5.30;3.20;;;;;;;18.77;42.62;101034.72;4946870;28;20285;-71
2022/05/02 11:43:01;;;;;;;6.33;3.23;;;;;;;18.77;40.42;101037.38;4942677;28;20199;-71
2022/05/02 11:45:42;;;;;;;6.17;3.50;;;;;;;18.89;40.27;101034.97;4935248;28;20210;-71
2022/05/02 11:48:48;;;;;;;4.73;3.27;;;;;;;18.82;38.63;101038.00;4942143;29;20277;-71
2022/05/02 11:51:58;;;;;;;4.80;3.30;;;;;;;18.81;39.19;101031.00;4945948;29;20494;-71
2022/05/02 11:55:01;;;;;;;4.13;2.90;;;;;;;18.83;38.88;101023.88;4947700;29;20592;-71
2022/05/02 12:01:11;;;;;;;4.80;3.10;;;;;;;18.98;40.38;101012.47;4945229;28;20250;-71
2022/05/02 12:04:16;;;;;;;5.37;3.30;;;;;;;19.07;44.00;101001.41;4946102;29;20352;-71
2022/05/02 12:07:08;;;;;;;9.40;5.70;;;;;;;19.24;40.18;101004.88;4937580;29;20283;-71
2022/05/02 12:09:49;;;;;;;4.43;3.40;;;;;;;19.32;40.25;100994.72;4943098;29;20634;-71
2022/05/02 12:12:33;;;;;;;5.77;3.20;;;;;;;19.28;39.71;101001.13;4942035;29;20209;-71
2022/05/02 12:15:32;;;;;;;4.97;3.20;;;;;;;19.37;39.23;100992.66;4939093;29;20754;-71
2022/05/02 12:18:20;;;;;;;6.17;2.93;;;;;;;19.45;40.45;100989.56;4942800;29;20226;-72
2022/05/02 12:21:04;;;;;;;5.07;3.67;;;;;;;19.40;37.93;100996.91;4947353;28;20230;-71
2022/05/02 12:23:45;;;;;;;3.27;2.90;;;;;;;19.54;39.38;100990.84;4937506;29;20231;-71
2022/05/02 12:26:51;;;;;;;6.67;2.97;;;;;;;19.66;38.32;100990.13;4945663;29;20226;-71
2022/05/02 12:32:38;;;;;;;3.23;2.80;;;;;;;20.02;39.76;100978.34;4938663;29;20230;-71
2022/05/02 12:35:21;;;;;;;3.13;2.70;;;;;;;20.02;38.17;100967.75;4943454;29;20198;-71
2022/05/02 12:38:12;;;;;;;4.20;3.27;;;;;;;20.02;37.64;100975.69;4938898;29;20226;-71
2022/05/02 12:41:02;;;;;;;3.47;2.80;;;;;;;19.96;37.03;100968.97;4946052;29;20242;-71
2022/05/02 12:49:46;;;;;;;4.47;3.00;;;;;;;20.28;39.58;100955.59;4927965;29;20298;-71
2022/05/02 12:52:27;;;;;;;4.47;3.03;;;;;;;20.36;36.96;100957.75;4937839;28;20207;-71